Time;durP1;ratioP1;P1;durP2;ratioP2;P2;SDS_P1;SDS_P2;PMS_P1;PMS_P2;Temp;Humidity;BMP_temperature;BMP_pressure;BME280_temperature;BME280_humidity;BME280_pressure;Samples;Min_cycle;Max_cycle;Signal;HPM_P1;HPM_P2
2020/12/29 00:01:48;;;;;;;7.73;7.23;;;;;;;3.58;87.78;96978.53;5070340;28;20175;-77
2020/12/29 00:04:16;;;;;;;7.73;7.13;;;;;;;3.58;87.26;96980.44;5070285;28;20610;-77
2020/12/29 00:06:55;;;;;;;8.47;7.80;;;;;;;3.54;87.37;96977.66;5070363;28;20179;-75
2020/12/29 00:09:23;;;;;;;8.70;8.03;;;;;;;3.42;88.06;96983.16;5070233;28;20216;-76
2020/12/29 00:11:49;;;;;;;8.50;7.90;;;;;;;3.48;88.17;96975.59;5070345;28;20174;-76
2020/12/29 00:14:15;;;;;;;8.27;7.77;;;;;;;3.45;87.81;96981.66;5070075;28;20167;-77
2020/12/29 00:16:40;;;;;;;8.47;7.77;;;;;;;3.32;88.07;96980.19;5069980;28;20181;-77
2020/12/29 00:19:11;;;;;;;7.87;7.30;;;;;;;3.27;88.16;96973.94;5069768;28;20234;-77
2020/12/29 00:21:39;;;;;;;8.57;7.97;;;;;;;3.17;88.57;96968.28;5069943;28;20630;-77
2020/12/29 00:24:05;;;;;;;7.80;7.20;;;;;;;3.19;88.12;96976.81;5070140;28;20495;-76
2020/12/29 00:26:30;;;;;;;7.80;7.23;;;;;;;3.16;88.17;96974.81;5071301;28;20189;-76
2020/12/29 00:28:56;;;;;;;7.53;7.03;;;;;;;3.14;88.13;96974.38;5073698;28;20186;-76
2020/12/29 00:31:23;;;;;;;8.77;8.07;;;;;;;3.06;88.15;96978.81;5073511;28;20545;-76
2020/12/29 00:33:50;;;;;;;8.67;8.07;;;;;;;3.02;88.46;96961.75;5073470;28;20183;-76
2020/12/29 00:36:16;;;;;;;9.07;8.37;;;;;;;2.98;88.66;96964.38;5073437;28;20832;-76
2020/12/29 00:38:42;;;;;;;8.50;7.90;;;;;;;3.01;88.48;96962.09;5073451;28;20206;-76
2020/12/29 00:41:09;;;;;;;8.80;8.13;;;;;;;2.97;88.70;96968.19;5073414;28;20183;-76
2020/12/29 00:43:35;;;;;;;9.00;8.40;;;;;;;2.85;88.89;96968.25;5073381;28;20515;-76
2020/12/29 00:46:08;;;;;;;8.70;8.10;;;;;;;2.78;88.94;96970.78;5073373;28;20668;-75
2020/12/29 00:48:34;;;;;;;8.33;7.73;;;;;;;2.80;88.98;96968.53;5073271;28;20223;-76
2020/12/29 00:51:07;;;;;;;8.33;7.73;;;;;;;2.74;89.06;96961.81;5073263;28;20847;-77
2020/12/29 00:53:34;;;;;;;8.13;7.53;;;;;;;2.74;88.99;96963.72;5073213;28;20175;-75
2020/12/29 00:56:01;;;;;;;8.77;8.17;;;;;;;2.62;89.45;96961.91;5073196;28;20511;-75
2020/12/29 00:58:26;;;;;;;8.37;7.77;;;;;;;2.67;88.87;96973.19;5072739;28;20428;-76
2020/12/29 01:00:52;;;;;;;9.03;8.37;;;;;;;2.66;88.94;96965.47;5072856;28;20421;-75
2020/12/29 01:03:18;;;;;;;8.80;8.20;;;;;;;2.55;88.96;96964.38;5073038;28;20186;-75
2020/12/29 01:05:44;;;;;;;8.97;8.27;;;;;;;2.57;88.94;96970.22;5072974;28;20228;-76
2020/12/29 01:08:10;;;;;;;9.03;8.23;;;;;;;2.55;89.11;96965.16;5072846;28;20259;-75
2020/12/29 01:10:35;;;;;;;8.30;7.67;;;;;;;2.52;89.52;96959.69;5072856;28;20490;-76
2020/12/29 01:13:00;;;;;;;9.47;8.77;;;;;;;2.43;89.64;96964.44;5072909;28;20182;-76
2020/12/29 01:15:26;;;;;;;9.10;8.50;;;;;;;2.36;89.42;96962.34;5072806;28;20178;-76
2020/12/29 01:17:52;;;;;;;8.77;8.17;;;;;;;2.37;89.71;96967.38;5072787;28;20171;-76
2020/12/29 01:20:17;;;;;;;9.77;9.00;;;;;;;2.33;89.83;96971.91;5072575;28;20206;-76
2020/12/29 01:22:43;;;;;;;9.57;8.80;;;;;;;2.30;89.79;96972.56;5074258;28;20179;-76
2020/12/29 01:25:08;;;;;;;9.47;8.77;;;;;;;2.25;89.95;96975.50;5080186;28;20546;-76
2020/12/29 01:27:36;;;;;;;8.63;8.03;;;;;;;2.26;90.01;96970.91;5073899;28;20630;-76
2020/12/29 01:30:05;;;;;;;9.57;8.87;;;;;;;2.19;89.92;96958.03;5072527;28;20528;-76
2020/12/29 01:32:30;;;;;;;8.97;8.37;;;;;;;2.17;89.87;96959.47;5072654;28;20475;-76
2020/12/29 01:34:55;;;;;;;9.97;8.97;;;;;;;2.12;90.27;96963.22;5072837;28;20952;-76
2020/12/29 01:37:21;;;;;;;8.03;7.33;;;;;;;2.12;90.11;96960.53;5072569;28;20221;-76
2020/12/29 01:39:47;;;;;;;9.60;8.90;;;;;;;2.09;90.35;96966.59;5071049;28;20617;-76
2020/12/29 01:42:12;;;;;;;10.40;9.60;;;;;;;2.08;90.39;96970.41;5072305;28;20564;-75
2020/12/29 01:44:38;;;;;;;9.63;8.93;;;;;;;2.05;90.52;96966.50;5072176;28;20178;-76
2020/12/29 01:47:03;;;;;;;4.77;4.40;;;;;;;2.05;90.11;96971.09;5072075;28;20175;-76
2020/12/29 01:49:28;;;;;;;10.23;9.37;;;;;;;2.02;90.11;96977.13;5072265;28;20202;-76
2020/12/29 01:51:54;;;;;;;10.57;9.77;;;;;;;2.01;90.13;96983.66;5072216;28;20185;-76
2020/12/29 01:54:19;;;;;;;10.73;9.93;;;;;;;2.01;90.26;96984.44;5070955;28;20185;-75
2020/12/29 01:56:45;;;;;;;9.17;8.50;;;;;;;2.01;90.20;96992.50;5071455;28;20262;-76
2020/12/29 01:59:13;;;;;;;9.07;8.37;;;;;;;1.96;90.36;96989.28;5071844;28;20665;-76
2020/12/29 02:01:40;;;;;;;10.10;9.40;;;;;;;1.94;90.44;96991.53;5071459;28;20174;-77
2020/12/29 02:04:10;;;;;;;9.03;8.33;;;;;;;1.92;90.31;96991.09;5071897;28;20421;-76
2020/12/29 02:06:37;;;;;;;9.57;8.87;;;;;;;1.88;90.38;96990.19;5071249;28;20421;-75
2020/12/29 02:09:08;;;;;;;9.17;8.50;;;;;;;1.86;90.46;96998.59;5071310;28;20416;-77
2020/12/29 02:11:33;;;;;;;10.93;10.13;;;;;;;1.85;90.77;96999.72;5071217;28;20398;-77
2020/12/29 02:14:00;;;;;;;10.77;9.93;;;;;;;1.91;90.71;97005.69;5071290;28;20420;-76
2020/12/29 02:16:25;;;;;;;10.77;9.97;;;;;;;1.94;90.77;97002.28;5071194;28;20171;-76
2020/12/29 02:18:51;;;;;;;10.40;9.60;;;;;;;1.94;90.42;97005.00;5071073;28;20821;-77
2020/12/29 02:21:16;;;;;;;11.73;10.83;;;;;;;1.96;90.48;97005.44;5054018;28;20179;-76
2020/12/29 02:23:42;;;;;;;10.13;9.43;;;;;;;1.93;90.40;97014.19;5049879;28;20206;-76
2020/12/29 02:26:07;;;;;;;10.63;9.83;;;;;;;1.92;90.36;97012.63;5050863;28;20171;-76
2020/12/29 02:28:33;;;;;;;10.33;9.53;;;;;;;1.94;90.46;97018.44;5051057;28;20164;-76
2020/12/29 02:30:58;;;;;;;10.37;9.67;;;;;;;1.93;90.36;97014.19;5051299;28;20211;-76
2020/12/29 02:33:23;;;;;;;10.57;9.87;;;;;;;1.89;89.99;97026.75;5051043;28;20174;-76
2020/12/29 02:35:49;;;;;;;10.97;10.07;;;;;;;1.90;89.84;97025.63;5051112;28;20494;-77
2020/12/29 02:38:22;;;;;;;10.70;10.00;;;;;;;1.80;90.13;97029.56;5050832;28;20179;-77
2020/12/29 02:40:49;;;;;;;9.90;9.13;;;;;;;1.82;89.69;97032.69;5049714;28;20203;-77
2020/12/29 02:43:14;;;;;;;10.30;9.60;;;;;;;1.82;89.57;97037.31;5050970;28;20471;-76
2020/12/29 02:45:40;;;;;;;9.97;9.27;;;;;;;1.73;89.76;97040.88;5051344;28;20826;-76
2020/12/29 02:48:05;;;;;;;9.73;9.07;;;;;;;1.73;89.74;97048.16;5050973;28;20171;-76
2020/12/29 02:50:31;;;;;;;9.80;8.90;;;;;;;1.68;89.90;97043.81;5050718;28;20171;-76
2020/12/29 02:52:58;;;;;;;10.67;9.87;;;;;;;1.64;89.92;97045.59;5051191;28;20773;-76
2020/12/29 02:55:23;;;;;;;10.00;9.30;;;;;;;1.62;89.80;97055.13;5051186;28;20503;-76
2020/12/29 02:57:48;;;;;;;10.40;9.60;;;;;;;1.59;90.05;97048.53;5050573;28;20449;-75
2020/12/29 03:00:14;;;;;;;9.07;8.37;;;;;;;1.55;90.18;97055.69;5050451;28;20210;-77
2020/12/29 03:02:39;;;;;;;10.50;9.77;;;;;;;1.57;90.25;97055.34;5049263;28;20170;-76
2020/12/29 03:05:04;;;;;;;9.43;8.73;;;;;;;1.59;90.19;97061.16;5050623;28;20669;-75
2020/12/29 03:07:30;;;;;;;11.27;10.47;;;;;;;1.59;90.09;97066.56;5082716;28;20175;-76
2020/12/29 03:09:55;;;;;;;9.23;8.53;;;;;;;1.61;90.35;97069.72;5050391;28;20179;-76
2020/12/29 03:12:20;;;;;;;5.77;5.27;;;;;;;1.68;90.29;97069.94;5049418;28;20179;-75
2020/12/29 03:14:46;;;;;;;11.40;10.60;;;;;;;1.74;89.95;97064.00;5050578;28;20217;-76
2020/12/29 03:17:11;;;;;;;7.37;6.77;;;;;;;1.75;89.89;97068.25;5050221;28;20278;-76
2020/12/29 03:19:37;;;;;;;10.80;10.00;;;;;;;1.79;89.80;97071.84;5048763;28;20211;-76
2020/12/29 03:22:03;;;;;;;10.87;10.07;;;;;;;1.81;89.79;97076.09;5050310;28;20171;-77
2020/12/29 03:24:28;;;;;;;4.73;4.37;;;;;;;1.83;89.58;97073.84;5048785;28;20179;-76
2020/12/29 03:26:53;;;;;;;10.80;9.67;;;;;;;1.89;89.15;97086.75;5050231;28;20409;-76
2020/12/29 03:29:19;;;;;;;8.97;8.27;;;;;;;1.91;88.99;97075.66;5050290;28;20189;-76
2020/12/29 03:31:45;;;;;;;9.80;9.00;;;;;;;1.92;88.58;97082.59;5050385;28;20674;-76
2020/12/29 03:34:21;;;;;;;4.37;3.97;;;;;;;1.94;88.46;97091.91;5050172;28;20510;-76
2020/12/29 03:36:46;;;;;;;10.13;9.33;;;;;;;1.97;88.36;97090.44;5060839;28;20451;-76
2020/12/29 03:39:12;;;;;;;9.17;8.63;;;;;;;1.98;88.11;97094.69;5069980;28;20869;-77
2020/12/29 03:41:37;;;;;;;9.80;9.10;;;;;;;1.97;88.20;97098.53;5069986;28;20170;-75
2020/12/29 03:44:02;;;;;;;9.07;8.47;;;;;;;1.97;87.76;97093.13;5070119;28;20202;-76
2020/12/29 03:46:28;;;;;;;9.27;8.57;;;;;;;1.96;87.65;97092.34;5070000;28;20178;-77
2020/12/29 03:48:53;;;;;;;8.33;7.73;;;;;;;1.96;87.61;97095.03;5070086;28;20166;-77
2020/12/29 03:51:18;;;;;;;7.87;7.27;;;;;;;1.96;87.28;97092.34;5070110;28;20166;-77
2020/12/29 03:53:44;;;;;;;7.90;7.30;;;;;;;1.94;87.32;97094.59;5069964;28;20173;-76
2020/12/29 03:56:09;;;;;;;7.50;7.00;;;;;;;1.95;86.98;97101.56;5070051;28;20171;-77
2020/12/29 03:58:34;;;;;;;9.40;8.77;;;;;;;1.97;86.38;97099.31;5069113;28;20182;-76
2020/12/29 04:00:59;;;;;;;9.43;8.73;;;;;;;1.95;86.74;97093.47;5069962;28;20182;-75
2020/12/29 04:03:25;;;;;;;8.83;8.17;;;;;;;1.97;86.87;97098.53;5073763;28;20167;-76
2020/12/29 04:05:50;;;;;;;8.40;7.80;;;;;;;1.96;86.21;97094.25;5073789;28;20175;-76
2020/12/29 04:08:15;;;;;;;8.13;7.53;;;;;;;1.97;86.89;97099.31;5073360;28;20183;-77
2020/12/29 04:10:41;;;;;;;7.63;7.03;;;;;;;2.00;86.37;97098.63;5073687;28;20189;-76
2020/12/29 04:13:06;;;;;;;7.00;6.50;;;;;;;2.00;86.33;97103.22;5073911;28;20183;-77
2020/12/29 04:15:31;;;;;;;7.43;6.83;;;;;;;1.97;86.36;97107.38;5073579;28;20619;-75
2020/12/29 04:17:57;;;;;;;6.47;5.97;;;;;;;1.95;86.52;97106.94;5072157;28;20289;-76
2020/12/29 04:20:22;;;;;;;7.23;6.73;;;;;;;1.96;86.07;97108.50;5073387;28;20244;-75
2020/12/29 04:22:47;;;;;;;8.37;4.73;;;;;;;1.93;85.74;97101.09;5073557;28;20177;-77
2020/12/29 04:25:13;;;;;;;5.43;5.03;;;;;;;1.96;85.29;97110.41;5073482;28;20179;-76
2020/12/29 04:27:42;;;;;;;5.90;5.33;;;;;;;1.95;85.09;97106.16;5073231;28;20217;-75
2020/12/29 04:30:08;;;;;;;1.37;1.27;;;;;;;1.91;84.54;97105.25;5073337;28;20220;-76
2020/12/29 04:32:34;;;;;;;3.13;2.90;;;;;;;1.88;84.74;97108.59;5073398;28;20420;-77
2020/12/29 04:35:00;;;;;;;5.50;5.07;;;;;;;1.83;84.80;97098.84;5073313;28;20490;-76
2020/12/29 04:37:25;;;;;;;3.83;3.53;;;;;;;1.77;84.97;97102.91;5072946;28;20253;-76
2020/12/29 04:39:51;;;;;;;4.50;4.10;;;;;;;1.71;85.10;97102.31;5073171;28;20248;-76
2020/12/29 04:42:17;;;;;;;1.97;1.83;;;;;;;1.64;85.08;97094.03;5073137;28;20180;-76
2020/12/29 04:44:43;;;;;;;4.63;4.23;;;;;;;1.60;85.45;97103.91;5073097;28;20224;-77
2020/12/29 04:47:10;;;;;;;6.57;6.07;;;;;;;1.57;85.74;97104.56;5072961;28;20605;-76
2020/12/29 04:49:36;;;;;;;6.17;5.67;;;;;;;1.55;85.72;97108.69;5072978;28;20179;-76
2020/12/29 04:52:04;;;;;;;5.10;4.60;;;;;;;1.54;85.97;97113.28;5072824;28;20428;-75
2020/12/29 04:54:32;;;;;;;6.27;5.70;;;;;;;1.47;85.83;97113.84;5073292;28;20440;-76
2020/12/29 04:57:00;;;;;;;6.60;5.97;;;;;;;1.47;85.87;97113.06;5073039;28;20425;-77
2020/12/29 04:59:28;;;;;;;6.30;5.80;;;;;;;1.43;85.92;97112.94;5072890;28;20460;-76
2020/12/29 05:01:53;;;;;;;4.60;4.20;;;;;;;1.42;86.17;97105.19;5072985;28;20786;-76
2020/12/29 05:04:20;;;;;;;6.03;5.53;;;;;;;1.34;86.12;97114.94;5072799;28;20420;-76
2020/12/29 05:06:46;;;;;;;5.43;5.00;;;;;;;1.36;85.72;97117.31;5073230;28;20190;-76
2020/12/29 05:09:11;;;;;;;4.90;4.47;;;;;;;1.34;85.98;97122.22;5072913;28;20413;-75
2020/12/29 05:11:37;;;;;;;5.00;4.63;;;;;;;1.31;85.66;97126.38;5072430;28;20182;-77
2020/12/29 05:14:04;;;;;;;5.57;5.07;;;;;;;1.29;85.84;97125.13;5072861;28;20641;-76
2020/12/29 05:16:29;;;;;;;4.77;4.37;;;;;;;1.30;85.95;97130.19;5072673;28;20175;-76
2020/12/29 05:18:56;;;;;;;4.80;4.40;;;;;;;1.32;85.98;97132.53;5072406;28;20467;-76
2020/12/29 05:21:24;;;;;;;5.40;5.00;;;;;;;1.38;85.88;97133.88;5071268;28;20205;-75
2020/12/29 05:23:50;;;;;;;5.33;4.73;;;;;;;1.37;85.94;97132.31;5072417;28;20495;-75
2020/12/29 05:26:15;;;;;;;4.13;3.83;;;;;;;1.37;85.84;97130.41;5070889;28;20468;-77
2020/12/29 05:28:45;;;;;;;8.17;7.47;;;;;;;1.41;85.77;97125.16;5072289;28;20163;-76
2020/12/29 05:31:11;;;;;;;4.30;4.00;;;;;;;1.43;85.66;97125.59;5072108;28;20210;-76
2020/12/29 05:33:36;;;;;;;5.50;5.00;;;;;;;1.43;85.48;97128.28;5072214;28;20460;-77
2020/12/29 05:36:02;;;;;;;4.53;4.13;;;;;;;1.43;85.28;97126.38;5072180;28;20273;-76
2020/12/29 05:38:28;;;;;;;4.00;3.70;;;;;;;1.44;85.24;97124.47;5052982;28;20671;-77
2020/12/29 05:40:53;;;;;;;4.03;3.73;;;;;;;1.44;85.44;97130.63;5051931;28;20424;-76
2020/12/29 05:43:32;;;;;;;4.07;3.70;;;;;;;1.45;85.22;97131.44;5052040;28;20174;-76
2020/12/29 05:45:59;;;;;;;2.90;2.70;;;;;;;1.43;85.45;97134.44;5051949;28;20174;-76
2020/12/29 05:48:25;;;;;;;2.80;2.47;;;;;;;1.39;85.35;97138.94;5051863;28;20457;-76
2020/12/29 05:50:50;;;;;;;4.10;3.80;;;;;;;1.40;85.86;97139.72;5051674;28;20844;-75
2020/12/29 05:53:19;;;;;;;4.90;4.50;;;;;;;1.40;85.86;97128.97;5052052;28;20168;-76
2020/12/29 05:55:46;;;;;;;4.70;4.30;;;;;;;1.41;86.08;97131.31;5051748;28;20179;-76
2020/12/29 05:58:11;;;;;;;5.87;4.93;;;;;;;1.38;85.56;97139.25;5051642;28;20430;-76
2020/12/29 06:00:40;;;;;;;5.17;4.70;;;;;;;1.41;86.23;97143.97;5051629;28;20465;-76
2020/12/29 06:03:07;;;;;;;5.10;4.80;;;;;;;1.43;86.15;97147.13;5051586;28;20179;-75
2020/12/29 06:05:35;;;;;;;5.50;5.00;;;;;;;1.47;86.12;97146.13;5051704;28;20409;-77
2020/12/29 06:08:03;;;;;;;5.17;4.77;;;;;;;1.49;86.56;97148.50;5069138;28;20428;-77
2020/12/29 06:10:30;;;;;;;6.10;5.53;;;;;;;1.55;86.02;97155.22;5071424;28;20417;-76
2020/12/29 06:12:58;;;;;;;6.13;5.57;;;;;;;1.59;86.13;97155.31;5071463;28;20413;-76
2020/12/29 06:15:28;;;;;;;6.13;5.63;;;;;;;1.61;86.17;97163.88;5069910;28;20423;-76
2020/12/29 06:17:56;;;;;;;5.63;5.23;;;;;;;1.59;86.10;97166.91;5071087;28;21027;-76
2020/12/29 06:20:22;;;;;;;5.53;5.03;;;;;;;1.62;86.09;97170.81;5069769;28;20571;-76
2020/12/29 06:22:50;;;;;;;6.83;5.70;;;;;;;1.69;86.43;97181.81;5071104;28;20270;-76
2020/12/29 06:25:17;;;;;;;6.03;5.43;;;;;;;1.69;86.21;97179.91;5070430;28;20189;-77
2020/12/29 06:27:52;;;;;;;6.13;5.27;;;;;;;1.68;86.34;97177.56;5070886;28;20417;-76
2020/12/29 06:30:20;;;;;;;5.90;5.40;;;;;;;1.69;86.27;97179.13;5071357;28;20455;-76
2020/12/29 06:32:48;;;;;;;6.47;5.97;;;;;;;1.66;86.48;97191.34;5071113;28;20432;-76
2020/12/29 06:35:15;;;;;;;6.40;5.90;;;;;;;1.60;86.63;97198.06;5071079;28;20436;-76
2020/12/29 06:37:45;;;;;;;6.27;5.80;;;;;;;1.56;87.03;97213.28;5070953;28;20417;-76
2020/12/29 06:40:11;;;;;;;6.63;6.03;;;;;;;1.58;87.23;97208.34;5070927;28;20963;-76
2020/12/29 06:42:41;;;;;;;7.70;6.90;;;;;;;1.58;87.14;97215.63;5070921;28;20471;-76
2020/12/29 06:45:08;;;;;;;8.27;7.57;;;;;;;1.49;87.85;97208.44;5071119;28;20462;-76
2020/12/29 06:47:38;;;;;;;8.17;7.57;;;;;;;1.65;87.21;97210.50;5070861;28;20452;-76
2020/12/29 06:50:26;;;;;;;6.90;6.40;;;;;;;1.75;86.86;97210.88;5070702;28;20439;-76
2020/12/29 06:53:14;;;;;;;6.60;6.10;;;;;;;1.78;86.81;97217.50;5070784;28;20932;-76
2020/12/29 06:55:44;;;;;;;6.77;6.17;;;;;;;1.79;86.51;97208.31;5070776;28;20417;-76
2020/12/29 06:58:27;;;;;;;6.40;5.80;;;;;;;1.72;86.98;97221.50;5070561;28;20516;-76
2020/12/29 07:00:52;;;;;;;6.63;6.03;;;;;;;1.68;87.25;97228.69;5070698;28;20559;-76
2020/12/29 07:03:31;;;;;;;7.23;6.73;;;;;;;1.78;87.14;97226.34;5070638;28;20981;-76
2020/12/29 07:05:57;;;;;;;7.13;6.60;;;;;;;1.81;87.19;97238.34;5070719;28;20182;-76
2020/12/29 07:08:35;;;;;;;7.23;6.63;;;;;;;1.76;86.88;97241.25;5069526;28;20455;-76
2020/12/29 07:11:00;;;;;;;7.17;6.57;;;;;;;1.88;87.17;97235.09;5069347;28;20569;-77
2020/12/29 07:13:27;;;;;;;7.33;6.80;;;;;;;1.86;86.52;97238.13;5070654;28;20425;-76
2020/12/29 07:15:55;;;;;;;7.17;6.57;;;;;;;1.85;86.10;97241.16;5070962;28;20167;-77
2020/12/29 07:18:25;;;;;;;7.80;7.20;;;;;;;1.83;86.31;97246.09;5070357;28;20421;-76
2020/12/29 07:20:53;;;;;;;6.70;6.20;;;;;;;1.83;86.49;97248.78;5070540;28;20589;-75
2020/12/29 07:23:20;;;;;;;7.37;6.70;;;;;;;1.83;86.58;97252.25;5070641;28;20457;-76
2020/12/29 07:25:48;;;;;;;7.90;6.57;;;;;;;1.80;86.52;97261.00;5070514;28;20428;-76
2020/12/29 07:28:13;;;;;;;74.07;26.63;;;;;;;1.79;86.54;97262.91;5070403;28;20429;-76
2020/12/29 07:30:38;;;;;;;10.17;9.17;;;;;;;1.74;86.92;97268.50;5069323;28;20512;-76
2020/12/29 07:33:06;;;;;;;57.17;22.10;;;;;;;1.83;87.10;97273.00;5070734;28;20178;-77
2020/12/29 07:35:37;;;;;;;10.20;9.30;;;;;;;1.91;86.73;97266.75;5075069;28;20170;-77
2020/12/29 07:38:14;;;;;;;7.37;6.80;;;;;;;1.93;86.25;97275.28;5078897;28;20424;-76
2020/12/29 07:40:40;;;;;;;6.70;6.20;;;;;;;1.86;86.30;97283.09;5075264;28;20468;-77
2020/12/29 07:43:06;;;;;;;7.43;6.83;;;;;;;1.83;86.24;97278.38;5074779;28;20444;-75
2020/12/29 07:45:33;;;;;;;8.47;7.83;;;;;;;1.80;86.49;97290.59;5073549;28;20860;-74
2020/12/29 07:47:59;;;;;;;9.57;8.77;;;;;;;1.77;86.52;97294.75;5074704;28;20239;-74
2020/12/29 07:50:25;;;;;;;8.50;7.70;;;;;;;1.76;86.61;97298.56;5074648;28;20420;-76
2020/12/29 07:52:59;;;;;;;8.47;7.77;;;;;;;1.74;86.92;97295.41;5074389;28;20963;-75
2020/12/29 07:55:25;;;;;;;7.47;6.87;;;;;;;1.71;86.66;97303.34;5072256;28;20664;-75
2020/12/29 07:57:50;;;;;;;7.80;7.20;;;;;;;1.68;86.82;97296.72;5073906;28;20507;-76
2020/12/29 08:00:16;;;;;;;7.97;7.37;;;;;;;1.68;86.88;97304.00;5073903;28;20206;-77
2020/12/29 08:02:50;;;;;;;8.67;7.97;;;;;;;1.67;87.02;97316.69;5074032;28;20159;-76
2020/12/29 08:05:19;;;;;;;8.80;8.20;;;;;;;1.63;87.31;97315.00;5073910;28;20416;-76
2020/12/29 08:08:04;;;;;;;6.77;6.17;;;;;;;1.58;87.32;97320.56;5073445;28;20769;-76
2020/12/29 08:10:31;;;;;;;5.60;5.10;;;;;;;1.54;87.26;97325.81;5072346;28;20419;-77
2020/12/29 08:12:58;;;;;;;7.77;7.07;;;;;;;1.57;87.77;97338.59;5073735;28;20452;-77
2020/12/29 08:15:34;;;;;;;6.33;5.80;;;;;;;1.60;87.46;97342.56;5073677;28;20971;-77
2020/12/29 08:18:20;;;;;;;9.50;8.70;;;;;;;1.61;87.22;97342.22;5073421;28;20412;-78
2020/12/29 08:20:57;;;;;;;8.53;7.70;;;;;;;1.62;87.07;97353.78;5073251;28;20456;-77
2020/12/29 08:23:27;;;;;;;4.17;3.87;;;;;;;1.63;87.35;97352.66;5073813;28;20416;-77
2020/12/29 08:25:58;;;;;;;8.00;7.20;;;;;;;1.63;86.98;97360.72;5073789;28;20397;-77
2020/12/29 08:28:25;;;;;;;8.17;7.37;;;;;;;1.65;87.08;97363.88;5073327;28;20445;-77
2020/12/29 08:30:51;;;;;;;9.00;8.20;;;;;;;1.66;87.15;97374.31;5073145;28;20421;-77
2020/12/29 08:33:22;;;;;;;7.97;7.20;;;;;;;1.68;86.92;97372.06;5073258;28;20508;-75
2020/12/29 08:36:02;;;;;;;9.90;9.03;;;;;;;1.67;86.87;97375.88;5073304;28;20925;-76
2020/12/29 08:38:30;;;;;;;8.37;7.37;;;;;;;1.67;86.96;97375.88;5071903;28;20848;-74
2020/12/29 08:41:04;;;;;;;7.03;6.33;;;;;;;1.67;86.78;97381.25;5071856;28;20491;-75
2020/12/29 08:43:33;;;;;;;9.77;8.77;;;;;;;1.70;86.86;97380.59;5072092;28;20856;-78
2020/12/29 08:46:03;;;;;;;9.30;8.50;;;;;;;1.75;86.85;97390.41;5073299;28;20453;-77
2020/12/29 08:48:29;;;;;;;8.93;8.23;;;;;;;1.81;87.05;97393.66;5072482;28;20417;-77
2020/12/29 08:50:54;;;;;;;7.47;6.87;;;;;;;1.87;86.69;97395.03;5073054;28;20420;-77
2020/12/29 08:53:24;;;;;;;8.13;7.47;;;;;;;1.95;86.51;97391.50;5072889;28;20704;-77
2020/12/29 08:55:49;;;;;;;9.00;8.30;;;;;;;1.99;86.03;97398.56;5073218;28;20174;-76
2020/12/29 08:58:24;;;;;;;4.07;3.67;;;;;;;2.07;86.09;97399.63;5072696;28;20440;-76
2020/12/29 09:00:49;;;;;;;6.53;6.03;;;;;;;2.12;85.90;97401.31;5073001;28;20201;-77
2020/12/29 09:03:28;;;;;;;8.10;7.37;;;;;;;2.20;86.08;97414.72;5071339;28;20443;-76
2020/12/29 09:05:54;;;;;;;7.73;7.03;;;;;;;2.31;86.07;97421.25;5073275;28;20198;-76
2020/12/29 09:08:29;;;;;;;8.80;8.20;;;;;;;2.39;86.03;97422.28;5072377;28;20416;-76
2020/12/29 09:11:14;;;;;;;8.27;7.57;;;;;;;2.53;85.61;97430.06;5072823;28;20417;-77
2020/12/29 09:14:05;;;;;;;7.40;6.90;;;;;;;2.64;84.70;97444.72;5071284;28;20416;-76
2020/12/29 09:16:31;;;;;;;6.93;6.40;;;;;;;2.64;84.75;97434.72;5072347;28;20231;-76
2020/12/29 09:18:56;;;;;;;6.70;6.10;;;;;;;2.62;84.99;97436.19;5072358;28;20452;-77
2020/12/29 09:21:24;;;;;;;7.40;6.80;;;;;;;2.63;85.01;97437.75;5072316;28;20431;-77
2020/12/29 09:23:57;;;;;;;6.03;5.53;;;;;;;2.73;84.96;97433.81;5071681;28;20541;-76
2020/12/29 09:26:22;;;;;;;5.03;4.63;;;;;;;2.76;84.80;97452.03;5071809;28;20931;-76
2020/12/29 09:28:47;;;;;;;4.07;3.67;;;;;;;2.74;84.19;97449.66;5072170;28;20409;-77
2020/12/29 09:31:13;;;;;;;3.00;2.67;;;;;;;2.72;84.09;97454.59;5072082;28;20171;-78
2020/12/29 09:33:39;;;;;;;4.70;4.23;;;;;;;2.76;84.15;97463.63;5072271;28;20175;-76
2020/12/29 09:36:16;;;;;;;5.47;5.07;;;;;;;2.81;84.21;97468.78;5070889;28;20171;-76
2020/12/29 09:38:42;;;;;;;4.97;4.57;;;;;;;2.84;84.16;97465.41;5067201;28;20424;-76
2020/12/29 09:41:07;;;;;;;6.40;6.00;;;;;;;2.88;84.04;97474.41;5070629;28;20425;-76
2020/12/29 09:43:33;;;;;;;5.57;4.87;;;;;;;2.94;84.17;97475.78;5070511;28;20182;-76
2020/12/29 09:45:58;;;;;;;6.07;5.50;;;;;;;2.96;84.27;97487.00;5072304;28;20186;-77
2020/12/29 09:48:24;;;;;;;2.93;2.63;;;;;;;3.03;83.64;97491.06;5071986;28;20232;-76
2020/12/29 09:50:50;;;;;;;3.10;2.90;;;;;;;3.02;83.55;97490.28;5068609;28;20201;-76
2020/12/29 09:53:15;;;;;;;3.00;2.80;;;;;;;3.03;84.41;97493.75;5071883;28;20593;-74
2020/12/29 09:55:41;;;;;;;5.87;5.37;;;;;;;3.09;83.67;97487.81;5071737;28;20163;-76
2020/12/29 09:58:06;;;;;;;2.40;2.20;;;;;;;3.09;82.87;97492.44;5071642;28;20177;-76
2020/12/29 10:00:32;;;;;;;2.87;2.57;;;;;;;3.07;82.96;97490.06;5062815;28;20221;-76
2020/12/29 10:02:58;;;;;;;4.70;4.40;;;;;;;3.14;83.30;97487.59;5057058;28;20584;-75
2020/12/29 10:05:24;;;;;;;4.83;4.43;;;;;;;3.19;83.49;97498.19;5051376;28;20171;-76
2020/12/29 10:07:50;;;;;;;3.67;3.37;;;;;;;3.26;83.80;97497.63;5051251;28;20418;-76
2020/12/29 10:10:15;;;;;;;4.57;4.27;;;;;;;3.27;83.23;97499.97;5051351;28;20174;-76
2020/12/29 10:12:41;;;;;;;5.23;4.63;;;;;;;3.31;83.33;97502.00;5053935;28;20215;-75
2020/12/29 10:15:06;;;;;;;5.33;4.83;;;;;;;3.36;83.42;97504.50;5070707;28;20174;-75
2020/12/29 10:17:32;;;;;;;1.77;1.67;;;;;;;3.41;82.33;97507.75;5071076;28;20197;-76
2020/12/29 10:19:58;;;;;;;2.60;2.40;;;;;;;3.42;82.50;97513.94;5070921;28;20218;-76
2020/12/29 10:22:25;;;;;;;3.13;2.83;;;;;;;3.45;82.16;97515.97;5071062;28;20181;-75
2020/12/29 10:24:51;;;;;;;6.30;5.80;;;;;;;3.53;83.40;97515.84;5071418;28;20170;-75
2020/12/29 10:27:16;;;;;;;5.33;4.93;;;;;;;3.56;82.35;97523.28;5070964;28;20416;-75
2020/12/29 10:29:41;;;;;;;5.63;5.13;;;;;;;3.61;82.20;97521.47;5071036;28;20171;-75
2020/12/29 10:32:07;;;;;;;5.33;5.03;;;;;;;3.66;82.22;97523.97;5071233;28;20205;-74
2020/12/29 10:34:32;;;;;;;5.03;4.60;;;;;;;3.67;82.04;97530.94;5070895;28;20600;-76
2020/12/29 10:36:57;;;;;;;3.00;2.77;;;;;;;3.55;81.66;97532.50;5070931;28;20173;-75
2020/12/29 10:39:23;;;;;;;3.40;2.93;;;;;;;3.48;81.35;97532.28;5070787;28;20216;-74
2020/12/29 10:41:48;;;;;;;2.63;2.43;;;;;;;3.52;82.52;97535.09;5070723;28;20174;-76
2020/12/29 10:44:14;;;;;;;5.00;4.60;;;;;;;3.56;82.15;97541.38;5070338;28;20307;-74
2020/12/29 10:46:39;;;;;;;3.43;3.03;;;;;;;3.55;82.05;97546.00;5070395;28;20190;-76
2020/12/29 10:49:05;;;;;;;3.77;3.47;;;;;;;3.61;82.50;97551.94;5070729;28;20241;-75
2020/12/29 10:51:30;;;;;;;3.80;3.50;;;;;;;3.63;82.16;97554.34;5070738;28;20320;-75
2020/12/29 10:53:57;;;;;;;6.53;6.03;;;;;;;3.64;82.26;97561.31;5070841;28;20174;-73
2020/12/29 10:56:22;;;;;;;8.03;7.50;;;;;;;3.65;82.30;97558.28;5070603;28;20170;-74
2020/12/29 10:58:49;;;;;;;5.60;5.20;;;;;;;3.68;82.07;97568.41;5070540;28;20649;-76
2020/12/29 11:01:23;;;;;;;2.63;2.43;;;;;;;3.66;81.09;97584.13;5070813;28;20174;-73
2020/12/29 11:03:49;;;;;;;5.27;4.77;;;;;;;3.66;81.84;97576.03;5070195;28;20421;-75
2020/12/29 11:06:16;;;;;;;6.57;6.07;;;;;;;3.59;82.05;97576.59;5070099;28;20456;-72
2020/12/29 11:08:41;;;;;;;4.87;4.53;;;;;;;3.61;81.80;97572.75;5071089;28;20177;-75
2020/12/29 11:11:07;;;;;;;5.47;5.03;;;;;;;3.63;81.84;97579.41;5070276;28;20554;-74
2020/12/29 11:13:33;;;;;;;3.30;3.10;;;;;;;3.64;81.35;97582.91;5070632;28;20182;-74
2020/12/29 11:15:58;;;;;;;3.03;2.83;;;;;;;3.64;81.99;97588.31;5070616;28;20185;-74
2020/12/29 11:18:23;;;;;;;5.17;4.77;;;;;;;3.63;80.95;97581.34;5067567;28;20272;-75
2020/12/29 11:20:50;;;;;;;6.17;5.77;;;;;;;3.67;81.54;97591.13;5054388;28;20591;-77
2020/12/29 11:23:16;;;;;;;3.70;3.33;;;;;;;3.72;80.93;97592.78;5070476;28;20175;-75
2020/12/29 11:25:41;;;;;;;5.50;5.00;;;;;;;3.71;80.94;97600.09;5070805;28;20697;-76
2020/12/29 11:28:07;;;;;;;3.20;2.90;;;;;;;3.71;81.02;97596.63;5070336;28;20206;-76
2020/12/29 11:30:32;;;;;;;3.47;3.17;;;;;;;3.72;80.90;97601.69;5070483;28;20179;-75
2020/12/29 11:32:58;;;;;;;5.40;5.07;;;;;;;3.74;81.06;97598.66;5070054;28;20171;-74
2020/12/29 11:35:23;;;;;;;2.83;2.63;;;;;;;3.78;81.39;97611.16;5069864;28;20214;-74
2020/12/29 11:37:48;;;;;;;2.83;2.63;;;;;;;3.74;80.65;97625.63;5070239;28;20652;-75
2020/12/29 11:40:13;;;;;;;6.03;5.53;;;;;;;3.68;81.51;97621.59;5070285;28;20205;-75
2020/12/29 11:42:39;;;;;;;4.63;4.23;;;;;;;3.70;81.55;97624.75;5070243;28;20258;-76